Time;durP1;ratioP1;P1;durP2;ratioP2;P2;SDS_P1;SDS_P2;PMS_P1;PMS_P2;Temp;Humidity;BMP_temperature;BMP_pressure;BME280_temperature;BME280_humidity;BME280_pressure;Samples;Min_cycle;Max_cycle;Signal;HPM_P1;HPM_P2
2023/06/21 00:00:51;;;;;;;15.90;14.63;;;23.40;32.80;;;;;;4972803;28;20442;-60
2023/06/21 00:03:17;;;;;;;15.53;14.43;;;23.40;32.20;;;;;;4972398;28;20514;-60
2023/06/21 00:05:42;;;;;;;15.90;14.83;;;23.40;31.90;;;;;;4972756;28;20938;-60
2023/06/21 00:08:08;;;;;;;15.43;14.53;;;23.50;31.70;;;;;;4972807;28;20179;-60
2023/06/21 00:10:34;;;;;;;15.77;14.77;;;23.50;31.80;;;;;;4972656;28;20547;-60
2023/06/21 00:13:00;;;;;;;16.37;14.97;;;23.50;32.10;;;;;;4972073;28;20425;-60
2023/06/21 00:15:27;;;;;;;15.77;14.50;;;23.50;32.40;;;;;;4972577;28;20468;-61
2023/06/21 00:17:52;;;;;;;15.97;14.50;;;23.50;32.40;;;;;;4972533;28;20265;-60
2023/06/21 00:20:18;;;;;;;14.13;13.23;;;23.50;32.60;;;;;;4972501;28;21119;-61
2023/06/21 00:22:45;;;;;;;16.80;15.40;;;23.50;32.00;;;;;;4973202;28;20181;-61
2023/06/21 00:25:12;;;;;;;16.27;15.10;;;23.50;32.10;;;;;;4972476;28;20647;-60
2023/06/21 00:27:38;;;;;;;15.10;13.80;;;23.50;31.80;;;;;;4972496;28;20500;-60
2023/06/21 00:30:04;;;;;;;16.00;15.10;;;23.50;31.90;;;;;;4972283;28;20417;-60
2023/06/21 00:32:30;;;;;;;15.53;14.63;;;23.50;32.00;;;;;;4971760;28;20418;-60
2023/06/21 00:34:56;;;;;;;16.23;14.93;;;23.40;32.80;;;;;;4972298;28;20519;-60
2023/06/21 00:37:21;;;;;;;16.03;14.93;;;23.30;32.70;;;;;;4973639;28;20627;-60
2023/06/21 00:39:47;;;;;;;15.93;14.93;;;23.20;32.80;;;;;;4973377;28;20202;-60
2023/06/21 00:42:13;;;;;;;16.77;15.77;;;23.10;33.10;;;;;;4971791;28;20178;-60
2023/06/21 00:44:38;;;;;;;15.03;14.03;;;23.10;32.90;;;;;;4971998;28;20277;-60
2023/06/21 00:47:04;;;;;;;16.03;15.13;;;23.00;33.30;;;;;;4971980;28;20182;-60
2023/06/21 00:49:31;;;;;;;15.73;14.90;;;23.00;33.40;;;;;;4972394;28;20679;-60
2023/06/21 00:51:57;;;;;;;16.37;15.37;;;22.90;33.60;;;;;;4971584;28;20449;-60
2023/06/21 00:54:27;;;;;;;15.93;14.73;;;23.00;33.60;;;;;;4972059;28;20833;-60
2023/06/21 00:56:59;;;;;;;17.03;15.60;;;23.00;33.40;;;;;;4971956;28;20182;-59
2023/06/21 00:59:28;;;;;;;15.93;14.77;;;23.00;33.40;;;;;;4971972;28;20919;-60
2023/06/21 01:01:57;;;;;;;15.93;14.97;;;23.00;33.10;;;;;;4971417;28;20414;-60
2023/06/21 01:04:29;;;;;;;16.00;14.80;;;23.00;33.40;;;;;;4971875;28;20513;-60
2023/06/21 01:07:13;;;;;;;15.57;14.70;;;22.90;33.70;;;;;;4971855;28;20422;-60
2023/06/21 01:09:54;;;;;;;15.70;14.70;;;22.90;34.10;;;;;;4971941;28;20427;-60
2023/06/21 01:12:29;;;;;;;16.57;15.50;;;22.80;34.40;;;;;;4971488;28;20702;-60
2023/06/21 01:15:12;;;;;;;15.90;14.90;;;22.90;34.30;;;;;;4973058;28;20540;-59
2023/06/21 01:17:40;;;;;;;16.30;15.10;;;23.00;34.20;;;;;;4971964;28;20418;-60
2023/06/21 01:20:14;;;;;;;15.80;14.80;;;23.00;33.70;;;;;;4971811;28;20775;-61
2023/06/21 01:23:06;;;;;;;16.87;15.77;;;23.00;33.30;;;;;;4971384;28;20516;-60
2023/06/21 01:26:09;;;;;;;16.97;15.70;;;23.10;33.00;;;;;;4971759;28;20429;-59
2023/06/21 01:29:04;;;;;;;15.47;14.50;;;23.10;32.90;;;;;;4971747;28;20426;-60
2023/06/21 01:31:31;;;;;;;17.30;15.90;;;23.10;32.60;;;;;;4971220;28;20433;-61
2023/06/21 01:33:58;;;;;;;16.17;14.97;;;23.10;32.60;;;;;;4971479;28;20497;-61
2023/06/21 01:36:24;;;;;;;16.87;15.57;;;23.00;32.50;;;;;;4971782;28;20465;-61
2023/06/21 01:38:55;;;;;;;16.30;15.17;;;22.80;33.00;;;;;;4971717;28;20518;-61
2023/06/21 01:41:20;;;;;;;16.73;15.37;;;22.70;33.30;;;;;;4970907;28;20446;-61
2023/06/21 01:43:46;;;;;;;16.33;15.33;;;22.70;33.50;;;;;;4971665;28;20433;-61
2023/06/21 01:46:14;;;;;;;16.30;15.20;;;22.80;33.90;;;;;;4971692;28;20178;-61
2023/06/21 01:48:41;;;;;;;17.00;15.70;;;22.80;33.80;;;;;;4971499;28;20835;-62
2023/06/21 01:51:09;;;;;;;16.80;15.67;;;22.80;33.70;;;;;;4971211;28;20454;-61
2023/06/21 01:53:37;;;;;;;17.73;16.47;;;22.80;34.00;;;;;;4971490;28;20426;-63
2023/06/21 01:56:08;;;;;;;17.40;16.20;;;22.70;33.90;;;;;;4973226;28;20488;-61
2023/06/21 01:58:34;;;;;;;16.80;15.90;;;22.70;33.70;;;;;;4975188;28;20509;-62
2023/06/21 02:01:02;;;;;;;16.40;15.27;;;22.70;33.90;;;;;;4974924;28;20406;-60
2023/06/21 02:03:30;;;;;;;15.93;14.90;;;22.70;34.20;;;;;;4974834;28;20424;-61
2023/06/21 02:05:59;;;;;;;16.30;15.40;;;22.80;34.10;;;;;;4975073;28;20424;-60
2023/06/21 02:08:26;;;;;;;15.53;14.53;;;22.80;33.80;;;;;;4975039;28;20472;-60
2023/06/21 02:10:52;;;;;;;17.67;16.37;;;22.90;33.80;;;;;;4974747;28;20426;-60
2023/06/21 02:13:18;;;;;;;16.87;15.70;;;22.90;33.70;;;;;;4974285;28;20433;-60
2023/06/21 02:15:46;;;;;;;16.23;15.33;;;22.90;33.60;;;;;;4974783;28;20655;-60
2023/06/21 02:18:12;;;;;;;16.53;15.43;;;22.90;33.60;;;;;;4974905;28;20417;-60
2023/06/21 02:20:38;;;;;;;16.87;15.73;;;23.00;33.60;;;;;;4974761;28;20501;-61
2023/06/21 02:23:05;;;;;;;17.60;16.20;;;23.00;34.00;;;;;;4974087;28;20468;-59
2023/06/21 02:25:35;;;;;;;16.17;15.20;;;23.00;34.00;;;;;;4974765;28;20925;-60
2023/06/21 02:28:01;;;;;;;17.73;16.77;;;23.00;34.00;;;;;;4974495;28;20484;-60
2023/06/21 02:30:27;;;;;;;17.47;16.27;;;23.00;33.80;;;;;;4974497;28;20461;-61
2023/06/21 02:32:52;;;;;;;15.70;14.70;;;23.00;34.00;;;;;;4973933;28;20438;-60
2023/06/21 02:35:18;;;;;;;17.03;15.73;;;23.00;34.20;;;;;;4974554;28;20210;-60
2023/06/21 02:37:44;;;;;;;16.27;15.13;;;23.00;34.00;;;;;;4974335;28;20229;-60
2023/06/21 02:40:10;;;;;;;16.90;15.77;;;22.90;34.20;;;;;;4975577;28;20431;-60
2023/06/21 02:42:37;;;;;;;17.40;16.20;;;23.00;34.20;;;;;;4973887;28;20653;-59
2023/06/21 02:45:03;;;;;;;16.50;15.30;;;23.00;34.10;;;;;;4974242;28;20481;-60
2023/06/21 02:47:29;;;;;;;16.80;15.33;;;22.90;34.10;;;;;;4974249;28;20430;-60
2023/06/21 02:49:55;;;;;;;17.03;15.93;;;23.00;34.30;;;;;;4974155;28;20453;-61
2023/06/21 02:52:21;;;;;;;16.53;15.63;;;23.00;34.40;;;;;;4973763;28;20441;-61
2023/06/21 02:54:46;;;;;;;17.10;15.90;;;22.90;34.20;;;;;;4974030;28;20598;-61
2023/06/21 02:57:12;;;;;;;17.83;16.63;;;23.00;34.20;;;;;;4974083;28;20179;-60
2023/06/21 02:59:38;;;;;;;16.23;15.13;;;22.90;34.30;;;;;;4974189;28;20186;-60
2023/06/21 03:02:04;;;;;;;17.60;16.17;;;22.90;34.70;;;;;;4973536;28;20666;-60
2023/06/21 03:04:30;;;;;;;17.90;16.63;;;22.90;34.50;;;;;;4973942;28;20485;-61
2023/06/21 03:06:56;;;;;;;18.03;17.00;;;22.90;34.30;;;;;;4975055;28;20429;-60
2023/06/21 03:09:22;;;;;;;16.87;15.97;;;22.90;34.10;;;;;;4973944;28;20236;-60
2023/06/21 03:11:48;;;;;;;17.80;16.77;;;22.90;34.40;;;;;;4973232;28;20448;-61
2023/06/21 03:14:14;;;;;;;17.60;16.43;;;22.90;34.10;;;;;;4973780;28;20541;-60
2023/06/21 03:16:40;;;;;;;18.10;16.90;;;22.90;34.40;;;;;;4973719;28;20314;-60
2023/06/21 03:19:08;;;;;;;18.53;17.27;;;22.90;34.40;;;;;;4973677;28;20218;-60
2023/06/21 03:21:34;;;;;;;17.37;16.47;;;22.90;34.70;;;;;;4973310;28;20825;-60
2023/06/21 03:24:01;;;;;;;18.00;17.00;;;22.90;34.60;;;;;;4973633;28;20426;-60
2023/06/21 03:26:26;;;;;;;17.23;16.23;;;22.90;34.20;;;;;;4973721;28;20481;-61
2023/06/21 03:28:54;;;;;;;17.20;16.20;;;22.80;34.30;;;;;;4973522;28;20839;-61
2023/06/21 03:31:20;;;;;;;19.00;17.80;;;22.70;34.40;;;;;;4973060;28;20186;-61
2023/06/21 03:33:46;;;;;;;17.23;16.13;;;22.60;35.00;;;;;;4973344;28;20946;-60
2023/06/21 03:36:12;;;;;;;16.90;15.73;;;22.60;35.30;;;;;;4973359;28;20426;-60
2023/06/21 03:38:38;;;;;;;18.63;17.43;;;22.70;35.30;;;;;;4973368;28;20775;-60
2023/06/21 03:41:03;;;;;;;17.70;16.70;;;22.70;35.50;;;;;;4973003;28;20630;-60
2023/06/21 03:43:29;;;;;;;19.07;17.73;;;22.70;35.40;;;;;;4973078;28;20715;-59
2023/06/21 03:45:55;;;;;;;16.63;15.73;;;22.80;35.20;;;;;;4973269;28;20237;-60
2023/06/21 03:48:20;;;;;;;17.70;16.60;;;22.70;35.40;;;;;;4973202;28;20182;-59
2023/06/21 03:50:46;;;;;;;16.60;15.40;;;22.80;35.60;;;;;;4974367;28;20258;-60
2023/06/21 03:53:11;;;;;;;17.57;16.47;;;22.80;32.30;;;;;;4972661;28;20186;-60
2023/06/21 03:55:38;;;;;;;17.07;15.80;;;22.90;32.40;;;;;;4972943;28;20217;-60
2023/06/21 03:58:04;;;;;;;16.43;15.23;;;22.70;37.50;;;;;;4956875;28;20418;-60
2023/06/21 04:00:29;;;;;;;16.13;15.00;;;22.60;37.60;;;;;;4972888;28;20698;-60
2023/06/21 04:02:55;;;;;;;16.20;15.10;;;22.50;36.40;;;;;;4972227;28;20190;-60
2023/06/21 04:05:21;;;;;;;18.10;17.00;;;22.40;36.70;;;;;;4974070;28;20466;-60
2023/06/21 04:07:46;;;;;;;16.20;15.40;;;22.30;37.20;;;;;;4972796;28;20274;-59
2023/06/21 04:10:13;;;;;;;18.20;16.93;;;22.30;38.10;;;;;;4972667;28;20666;-59
2023/06/21 04:12:39;;;;;;;17.00;16.10;;;22.20;38.80;;;;;;4972183;28;20546;-59
2023/06/21 04:15:06;;;;;;;17.07;16.07;;;22.10;39.40;;;;;;4972475;28;20552;-60
2023/06/21 04:17:32;;;;;;;16.43;15.43;;;22.10;40.20;;;;;;4972534;28;20414;-60
2023/06/21 04:19:57;;;;;;;17.30;16.13;;;22.10;40.40;;;;;;4971989;28;20426;-60
2023/06/21 04:22:24;;;;;;;16.60;15.70;;;22.10;40.80;;;;;;4972011;28;20765;-59
2023/06/21 04:24:51;;;;;;;15.90;15.10;;;22.10;41.70;;;;;;4972401;28;20186;-60
2023/06/21 04:27:17;;;;;;;17.37;16.27;;;22.00;41.60;;;;;;4972497;28;20413;-62
2023/06/21 04:29:43;;;;;;;16.80;15.90;;;22.10;41.70;;;;;;4972409;28;20473;-61
2023/06/21 04:32:09;;;;;;;16.07;15.17;;;22.00;41.50;;;;;;4971838;28;20422;-60
2023/06/21 04:34:36;;;;;;;18.13;16.80;;;22.00;42.00;;;;;;4972332;28;20211;-61
2023/06/21 04:37:08;;;;;;;16.50;15.60;;;22.00;42.00;;;;;;4972193;28;20410;-60
2023/06/21 04:39:35;;;;;;;16.20;15.07;;;22.00;42.00;;;;;;4972115;28;20779;-59
2023/06/21 04:42:00;;;;;;;16.00;15.10;;;22.00;41.40;;;;;;4971612;28;20461;-60
2023/06/21 04:44:27;;;;;;;16.20;15.30;;;22.00;42.00;;;;;;4972265;28;20744;-60
2023/06/21 04:47:00;;;;;;;16.80;15.50;;;22.00;42.10;;;;;;4972096;28;20555;-60
2023/06/21 04:49:26;;;;;;;16.00;15.00;;;22.00;42.00;;;;;;4972099;28;20865;-60
2023/06/21 04:51:57;;;;;;;16.60;15.67;;;22.00;41.30;;;;;;4971580;28;20426;-61
2023/06/21 04:54:26;;;;;;;15.93;14.90;;;22.10;41.90;;;;;;4971966;28;20469;-61
2023/06/21 04:56:52;;;;;;;16.67;15.57;;;22.10;41.60;;;;;;4972257;28;20414;-60
2023/06/21 04:59:18;;;;;;;17.27;16.17;;;22.10;41.20;;;;;;4971997;28;20425;-61
2023/06/21 05:01:44;;;;;;;16.40;15.40;;;22.10;42.20;;;;;;4971473;28;20514;-60
2023/06/21 05:04:09;;;;;;;16.97;15.77;;;22.10;42.10;;;;;;4972050;28;20210;-60
2023/06/21 05:06:35;;;;;;;16.60;15.60;;;22.10;42.50;;;;;;4971868;28;20480;-60
2023/06/21 05:09:01;;;;;;;16.50;15.60;;;22.10;42.20;;;;;;4971926;28;20379;-60
2023/06/21 05:11:27;;;;;;;16.90;15.90;;;22.10;42.20;;;;;;4971432;28;20802;-61
2023/06/21 05:13:53;;;;;;;17.13;15.87;;;22.10;42.20;;;;;;4971675;28;20183;-61
2023/06/21 05:16:19;;;;;;;16.77;15.87;;;22.10;42.10;;;;;;4971929;28;20429;-60
2023/06/21 05:18:45;;;;;;;16.90;15.83;;;22.10;42.10;;;;;;4971852;28;20182;-60
2023/06/21 05:21:10;;;;;;;16.90;15.93;;;22.10;43.20;;;;;;4971323;28;20535;-60
2023/06/21 05:23:36;;;;;;;17.77;16.67;;;22.10;43.10;;;;;;4971689;28;20425;-60
2023/06/21 05:26:02;;;;;;;18.30;17.40;;;22.10;43.80;;;;;;4955630;28;20289;-59
2023/06/21 05:28:27;;;;;;;18.33;17.20;;;22.10;44.40;;;;;;4973216;28;20796;-60
2023/06/21 05:30:53;;;;;;;18.13;16.83;;;22.10;44.30;;;;;;4971918;28;20547;-60
2023/06/21 05:33:18;;;;;;;16.97;15.97;;;22.10;45.10;;;;;;4975022;28;20542;-60
2023/06/21 05:35:44;;;;;;;18.67;17.43;;;22.20;45.20;;;;;;4975387;28;20210;-61
2023/06/21 05:38:10;;;;;;;18.20;17.00;;;22.00;42.10;;;;;;4975419;28;20183;-60
2023/06/21 05:40:35;;;;;;;18.20;17.07;;;22.00;42.70;;;;;;4975322;28;20202;-60
2023/06/21 05:43:01;;;;;;;18.53;17.40;;;22.00;43.90;;;;;;4974702;28;20218;-60
2023/06/21 05:45:28;;;;;;;17.90;16.80;;;22.10;44.50;;;;;;4975284;28;20193;-61
2023/06/21 05:47:55;;;;;;;17.77;16.73;;;22.10;43.60;;;;;;4975285;28;20422;-59
2023/06/21 05:50:20;;;;;;;18.33;16.90;;;22.20;43.00;;;;;;4975218;28;20429;-59
2023/06/21 05:52:46;;;;;;;18.00;16.90;;;22.20;43.10;;;;;;4974619;28;20429;-61
2023/06/21 05:55:11;;;;;;;17.50;16.07;;;22.30;43.40;;;;;;4975107;28;20218;-60
2023/06/21 05:57:37;;;;;;;17.60;16.33;;;22.30;43.90;;;;;;4975220;28;20245;-60
2023/06/21 06:00:08;;;;;;;19.67;18.37;;;22.30;44.30;;;;;;4975046;28;20522;-59
2023/06/21 06:02:33;;;;;;;18.50;17.20;;;22.30;45.00;;;;;;4974533;28;20281;-60
2023/06/21 06:04:59;;;;;;;19.50;18.20;;;22.40;44.90;;;;;;4974751;28;20517;-60
2023/06/21 06:07:25;;;;;;;19.03;17.73;;;22.30;43.40;;;;;;4976197;28;20185;-60
2023/06/21 06:09:51;;;;;;;19.10;17.90;;;22.30;41.70;;;;;;4975035;28;20183;-60
2023/06/21 06:12:18;;;;;;;19.70;18.10;;;22.20;42.10;;;;;;4975697;28;20427;-60
2023/06/21 06:14:44;;;;;;;17.30;16.20;;;22.20;42.20;;;;;;4974647;28;20741;-60
2023/06/21 06:17:10;;;;;;;18.00;17.00;;;22.30;42.30;;;;;;4974958;28;20520;-60
2023/06/21 06:19:35;;;;;;;18.03;16.73;;;22.30;41.40;;;;;;4976037;28;20216;-60
2023/06/21 06:22:01;;;;;;;17.93;16.30;;;22.30;42.30;;;;;;4974049;28;20186;-60
2023/06/21 06:24:27;;;;;;;17.57;16.37;;;22.40;42.40;;;;;;4974622;28;20186;-60
2023/06/21 06:26:53;;;;;;;16.40;15.50;;;22.40;39.60;;;;;;4974519;28;20179;-60
2023/06/21 06:29:19;;;;;;;16.60;15.53;;;22.40;38.40;;;;;;4974612;28;20444;-59
2023/06/21 06:31:45;;;;;;;16.90;15.77;;;22.40;39.10;;;;;;4973939;28;20418;-60
2023/06/21 06:34:10;;;;;;;16.87;15.70;;;22.40;38.50;;;;;;4974274;28;20218;-60
2023/06/21 06:36:36;;;;;;;15.97;15.07;;;22.50;38.20;;;;;;4974451;28;20183;-61
2023/06/21 06:39:02;;;;;;;16.63;15.43;;;22.50;38.50;;;;;;4976083;28;20249;-59
2023/06/21 06:41:28;;;;;;;16.80;15.90;;;22.50;37.60;;;;;;4973780;28;20607;-59
2023/06/21 06:43:53;;;;;;;18.53;17.30;;;22.50;37.70;;;;;;4973899;28;20457;-59
2023/06/21 06:46:19;;;;;;;16.83;15.70;;;22.50;37.60;;;;;;4974504;28;20179;-60
2023/06/21 06:48:44;;;;;;;16.90;15.90;;;22.60;37.50;;;;;;4974173;28;20175;-61
2023/06/21 06:51:10;;;;;;;18.13;16.80;;;22.60;37.20;;;;;;4974787;28;20185;-60
2023/06/21 06:53:36;;;;;;;17.00;16.00;;;22.70;36.70;;;;;;4974091;28;20233;-61
2023/06/21 06:56:02;;;;;;;18.77;17.57;;;22.70;37.10;;;;;;4975141;28;20305;-60
2023/06/21 06:58:28;;;;;;;18.40;16.97;;;22.80;36.90;;;;;;4974120;28;20206;-60
2023/06/21 07:00:54;;;;;;;18.20;16.80;;;22.80;36.80;;;;;;4973910;28;20175;-61
2023/06/21 07:03:20;;;;;;;18.40;17.10;;;22.90;36.30;;;;;;4973383;28;20434;-60
2023/06/21 07:05:47;;;;;;;17.63;16.43;;;23.00;35.80;;;;;;4975112;28;20421;-60
2023/06/21 07:08:12;;;;;;;17.83;16.80;;;23.00;35.10;;;;;;4973819;28;20273;-60
2023/06/21 07:10:38;;;;;;;18.20;16.77;;;23.10;35.20;;;;;;4974059;28;20505;-60
2023/06/21 07:13:04;;;;;;;18.30;17.00;;;23.10;35.60;;;;;;4973114;28;20717;-61
2023/06/21 07:15:30;;;;;;;18.97;17.50;;;23.20;34.60;;;;;;4973621;28;20466;-61
2023/06/21 07:17:56;;;;;;;17.97;16.80;;;23.30;34.00;;;;;;4974783;28;20776;-60
2023/06/21 07:20:22;;;;;;;18.40;17.33;;;23.30;34.00;;;;;;4973612;28;20261;-61
2023/06/21 07:22:48;;;;;;;18.00;17.03;;;23.30;33.40;;;;;;4973153;28;20555;-61
2023/06/21 07:25:15;;;;;;;18.17;16.90;;;23.30;34.20;;;;;;4974787;28;20502;-60
2023/06/21 07:27:41;;;;;;;17.33;16.23;;;23.30;34.30;;;;;;4973505;28;20565;-60
2023/06/21 07:30:07;;;;;;;18.23;17.00;;;23.40;34.30;;;;;;4973384;28;20437;-61
2023/06/21 07:32:33;;;;;;;17.90;17.00;;;23.50;33.40;;;;;;4973047;28;20825;-61
2023/06/21 07:34:59;;;;;;;17.30;16.10;;;23.60;33.80;;;;;;4973422;28;20469;-60
2023/06/21 07:37:27;;;;;;;17.43;16.27;;;23.70;32.90;;;;;;4975184;28;20636;-60
2023/06/21 07:39:52;;;;;;;15.70;14.63;;;23.70;33.10;;;;;;4974378;28;20493;-61
2023/06/21 07:42:18;;;;;;;14.63;13.77;;;23.70;30.10;;;;;;4972812;28;20451;-61
2023/06/21 07:44:45;;;;;;;14.80;14.00;;;23.80;28.80;;;;;;4973222;28;20644;-61
2023/06/21 07:47:10;;;;;;;14.70;13.90;;;23.90;28.50;;;;;;4973153;28;20187;-61
2023/06/21 07:49:36;;;;;;;15.50;14.60;;;24.00;28.60;;;;;;4973158;28;20432;-60
2023/06/21 07:52:02;;;;;;;15.53;14.53;;;24.00;29.60;;;;;;4972705;28;20594;-59
2023/06/21 07:54:28;;;;;;;15.23;14.33;;;24.10;29.80;;;;;;4972517;28;20674;-60
2023/06/21 07:56:53;;;;;;;14.30;13.57;;;24.00;29.80;;;;;;4972837;28;20497;-60
2023/06/21 07:59:19;;;;;;;15.50;14.63;;;24.00;30.00;;;;;;4973051;28;20179;-60
2023/06/21 08:01:45;;;;;;;14.80;14.10;;;24.10;31.80;;;;;;4972410;28;20549;-61
2023/06/21 08:04:10;;;;;;;17.77;16.57;;;24.00;32.80;;;;;;4972786;28;20202;-60
2023/06/21 08:06:36;;;;;;;16.63;15.73;;;23.90;33.30;;;;;;4972827;28;20195;-61
2023/06/21 08:09:01;;;;;;;16.07;15.13;;;23.90;33.80;;;;;;4972736;28;20205;-60
2023/06/21 08:11:27;;;;;;;17.43;16.30;;;23.90;33.80;;;;;;4972291;28;20674;-60
2023/06/21 08:13:53;;;;;;;15.43;14.43;;;23.80;33.20;;;;;;4972651;28;20186;-60
2023/06/21 08:16:18;;;;;;;15.77;14.77;;;23.70;33.10;;;;;;4972716;28;20178;-61
2023/06/21 08:18:44;;;;;;;15.67;14.63;;;23.70;34.10;;;;;;4972623;28;20182;-60
2023/06/21 08:21:10;;;;;;;16.27;15.40;;;23.70;33.80;;;;;;4972221;28;20532;-60
2023/06/21 08:23:35;;;;;;;15.17;14.27;;;23.80;33.20;;;;;;4973968;28;20186;-60
2023/06/21 08:26:01;;;;;;;15.83;15.03;;;23.70;33.00;;;;;;4972429;28;20190;-60
2023/06/21 08:28:27;;;;;;;16.57;15.57;;;23.70;33.10;;;;;;4972501;28;20186;-60
2023/06/21 08:30:53;;;;;;;15.57;14.67;;;23.80;33.70;;;;;;4972445;28;20551;-61
2023/06/21 08:33:18;;;;;;;15.63;14.73;;;23.80;34.20;;;;;;4972089;28;20429;-60
2023/06/21 08:35:44;;;;;;;16.40;15.53;;;23.70;34.80;;;;;;4972268;28;20261;-60
2023/06/21 08:38:10;;;;;;;15.50;14.60;;;23.70;35.00;;;;;;4972291;28;20182;-59
2023/06/21 08:40:38;;;;;;;16.20;14.70;;;23.70;34.00;;;;;;4972187;28;20358;-60
2023/06/21 08:43:04;;;;;;;14.93;14.00;;;23.70;33.10;;;;;;4971536;28;20631;-60
2023/06/21 08:45:30;;;;;;;15.63;14.73;;;23.70;33.10;;;;;;4972233;28;20441;-59
2023/06/21 08:48:02;;;;;;;15.23;14.27;;;23.80;33.30;;;;;;4971983;28;20237;-59
2023/06/21 08:50:29;;;;;;;15.07;14.17;;;23.80;33.90;;;;;;4972377;28;20911;-60
2023/06/21 08:52:59;;;;;;;14.40;13.70;;;23.80;34.00;;;;;;4971585;28;20457;-60
2023/06/21 08:55:27;;;;;;;15.23;14.27;;;23.80;33.80;;;;;;4972010;28;20548;-61
2023/06/21 08:57:59;;;;;;;14.37;13.63;;;23.80;33.20;;;;;;4973179;28;20461;-61
2023/06/21 09:00:41;;;;;;;24.50;23.03;;;23.80;33.90;;;;;;4972297;28;20406;-60
2023/06/21 09:03:15;;;;;;;16.23;15.13;;;23.80;33.90;;;;;;4971450;28;20425;-60
2023/06/21 09:06:03;;;;;;;14.47;13.50;;;23.80;36.50;;;;;;4971986;28;20418;-60
2023/06/21 09:08:32;;;;;;;15.00;14.10;;;23.70;37.70;;;;;;4971935;28;20461;-60
2023/06/21 09:10:59;;;;;;;15.63;14.77;;;23.70;38.40;;;;;;4971841;28;20432;-61
2023/06/21 09:13:25;;;;;;;13.93;13.13;;;23.70;37.30;;;;;;4971522;28;20480;-61
2023/06/21 09:15:51;;;;;;;14.87;13.87;;;23.60;36.80;;;;;;4971602;28;20466;-61
2023/06/21 09:18:18;;;;;;;14.13;13.33;;;23.60;36.20;;;;;;4971790;28;20503;-61
2023/06/21 09:20:48;;;;;;;13.83;12.97;;;23.60;36.90;;;;;;4971772;28;20418;-61
2023/06/21 09:23:14;;;;;;;14.00;13.20;;;23.50;37.50;;;;;;4971312;28;20931;-60
2023/06/21 09:25:40;;;;;;;14.27;13.27;;;23.50;38.10;;;;;;4971773;28;20429;-61
2023/06/21 09:28:06;;;;;;;13.30;12.43;;;23.40;38.10;;;;;;4971713;28;20530;-60
2023/06/21 09:30:31;;;;;;;13.40;12.70;;;23.40;38.60;;;;;;4971879;28;20426;-61
2023/06/21 09:32:57;;;;;;;14.77;13.77;;;23.30;39.90;;;;;;4971344;28;20190;-61
2023/06/21 09:35:24;;;;;;;14.20;13.20;;;23.30;40.20;;;;;;4971665;28;20698;-60
2023/06/21 09:37:50;;;;;;;13.83;12.93;;;23.30;41.30;;;;;;4971654;28;20187;-61
2023/06/21 09:40:15;;;;;;;13.33;12.43;;;23.20;43.00;;;;;;4972880;28;20789;-60
2023/06/21 09:42:43;;;;;;;14.90;13.80;;;23.10;43.10;;;;;;4971108;28;20273;-61
2023/06/21 09:45:12;;;;;;;14.73;13.87;;;23.10;43.70;;;;;;4971748;28;20245;-60
2023/06/21 09:47:42;;;;;;;14.50;13.60;;;23.10;45.40;;;;;;4971528;28;20861;-60
2023/06/21 09:50:09;;;;;;;14.40;13.40;;;23.00;45.40;;;;;;4972781;28;20851;-61
2023/06/21 09:52:34;;;;;;;12.33;11.60;;;23.00;46.70;;;;;;4971099;28;20517;-60
2023/06/21 09:55:02;;;;;;;13.87;12.63;;;23.00;47.50;;;;;;4971401;28;20554;-61
2023/06/21 09:57:32;;;;;;;13.70;12.60;;;23.00;48.10;;;;;;4972801;28;20171;-60
2023/06/21 09:59:59;;;;;;;12.43;11.50;;;22.90;48.70;;;;;;4972722;28;20506;-60
2023/06/21 10:02:26;;;;;;;13.37;12.47;;;22.90;49.10;;;;;;4970862;28;20428;-60
2023/06/21 10:04:54;;;;;;;11.57;10.57;;;22.80;49.70;;;;;;4971224;28;20480;-60
2023/06/21 10:07:26;;;;;;;12.50;11.60;;;22.80;49.40;;;;;;4971326;28;20521;-61
2023/06/21 10:09:52;;;;;;;13.47;12.37;;;22.80;50.50;;;;;;4971485;28;20418;-59
2023/06/21 10:12:17;;;;;;;13.27;12.23;;;22.70;52.80;;;;;;4971001;28;20919;-61
2023/06/21 10:14:43;;;;;;;13.53;12.30;;;22.60;55.20;;;;;;4972690;28;20205;-60
2023/06/21 10:17:11;;;;;;;12.87;11.97;;;22.40;57.50;;;;;;4971826;28;20187;-60
2023/06/21 10:19:37;;;;;;;14.20;13.03;;;22.40;57.10;;;;;;4976287;28;20437;-60
2023/06/21 10:22:08;;;;;;;14.37;13.10;;;22.40;56.80;;;;;;4974216;28;20779;-61
2023/06/21 10:24:37;;;;;;;15.13;13.77;;;22.20;58.30;;;;;;4974657;28;20426;-60
2023/06/21 10:27:06;;;;;;;13.33;12.40;;;22.10;57.50;;;;;;4974715;28;20438;-60
2023/06/21 10:29:36;;;;;;;14.10;12.80;;;22.00;59.00;;;;;;4976085;28;20418;-61
2023/06/21 10:32:05;;;;;;;13.50;12.53;;;22.00;58.40;;;;;;4973999;28;20985;-60
2023/06/21 10:34:59;;;;;;;14.70;13.70;;;22.00;56.90;;;;;;4974349;28;20469;-60
2023/06/21 10:37:48;;;;;;;13.77;12.67;;;22.00;57.70;;;;;;4974534;28;20414;-60
2023/06/21 10:40:14;;;;;;;15.03;13.73;;;22.10;58.30;;;;;;4974328;28;20468;-61
2023/06/21 10:42:41;;;;;;;14.00;13.10;;;22.10;57.60;;;;;;4973929;28;20422;-61
2023/06/21 10:45:09;;;;;;;14.20;12.97;;;22.20;56.30;;;;;;4975716;28;20493;-61
2023/06/21 10:47:36;;;;;;;15.00;13.60;;;22.20;54.20;;;;;;4974295;28;20798;-61
2023/06/21 10:50:02;;;;;;;14.80;13.70;;;22.20;55.00;;;;;;4974200;28;20429;-60
2023/06/21 10:52:30;;;;;;;16.13;15.03;;;22.30;55.00;;;;;;4973707;28;20429;-60
2023/06/21 10:55:00;;;;;;;13.77;12.87;;;22.40;54.60;;;;;;4974179;28;20202;-61
2023/06/21 10:57:28;;;;;;;14.97;14.03;;;22.40;52.50;;;;;;4974186;28;20422;-61
2023/06/21 11:00:02;;;;;;;16.80;15.43;;;22.30;50.30;;;;;;4975131;28;20558;-61
2023/06/21 11:02:31;;;;;;;18.67;17.03;;;22.40;52.00;;;;;;4974519;28;20415;-60
2023/06/21 11:05:26;;;;;;;15.90;14.80;;;22.40;54.10;;;;;;4973890;28;20426;-60
2023/06/21 11:08:00;;;;;;;16.23;15.07;;;22.50;53.70;;;;;;4972397;28;20507;-60
2023/06/21 11:10:38;;;;;;;16.30;15.10;;;22.50;48.80;;;;;;4973196;28;20985;-59
2023/06/21 11:13:04;;;;;;;17.37;16.07;;;22.40;48.60;;;;;;4972524;28;20434;-59
2023/06/21 11:15:31;;;;;;;15.40;14.30;;;22.50;49.00;;;;;;4973740;28;20543;-57
2023/06/21 11:18:01;;;;;;;15.00;13.80;;;22.50;48.20;;;;;;4973818;28;20178;-59
2023/06/21 11:20:28;;;;;;;14.87;13.77;;;22.60;49.80;;;;;;4973976;28;20422;-60
2023/06/21 11:22:55;;;;;;;16.10;14.90;;;22.50;46.90;;;;;;4973310;28;20410;-60
2023/06/21 11:25:21;;;;;;;15.77;14.60;;;22.50;47.80;;;;;;4974030;28;20454;-60
2023/06/21 11:28:19;;;;;;;15.60;14.30;;;22.50;46.90;;;;;;4973729;28;20457;-61
2023/06/21 11:31:14;;;;;;;15.80;14.53;;;22.40;45.70;;;;;;4973182;28;20558;-58
2023/06/21 11:33:56;;;;;;;15.80;13.60;;;22.50;46.80;;;;;;4973633;28;20438;-59
2023/06/21 11:36:30;;;;;;;15.17;13.90;;;22.70;47.90;;;;;;4973707;28;20945;-59
2023/06/21 11:39:18;;;;;;;16.60;15.30;;;22.90;47.50;;;;;;4973603;28;20929;-60
2023/06/21 11:41:44;;;;;;;16.13;14.80;;;22.90;45.80;;;;;;4972543;28;20434;-60
2023/06/21 11:44:26;;;;;;;16.77;15.57;;;23.00;45.30;;;;;;4973311;28;20891;-59
2023/06/21 11:47:15;;;;;;;16.17;15.17;;;23.00;43.20;;;;;;4973229;28;20237;-59
2023/06/21 11:49:47;;;;;;;16.47;15.27;;;23.00;43.00;;;;;;4973347;28;20417;-59
2023/06/21 11:52:13;;;;;;;15.87;14.87;;;23.10;43.00;;;;;;4972475;28;20418;-59
2023/06/21 11:54:39;;;;;;;15.40;14.50;;;23.10;40.80;;;;;;4973800;28;21064;-59
2023/06/21 11:57:05;;;;;;;16.43;15.27;;;23.20;39.70;;;;;;5008683;28;20460;-60
2023/06/21 11:59:36;;;;;;;15.97;14.77;;;23.20;40.80;;;;;;5008702;28;20214;-59
2023/06/21 12:02:14;;;;;;;18.47;17.17;;;23.20;40.50;;;;;;5007921;28;20421;-59
2023/06/21 12:04:41;;;;;;;16.17;15.30;;;23.30;39.80;;;;;;4992173;28;20424;-60
2023/06/21 12:07:07;;;;;;;16.50;15.30;;;23.30;39.80;;;;;;4992025;28;20892;-60
2023/06/21 12:09:33;;;;;;;17.17;15.97;;;23.30;40.70;;;;;;5008140;28;20515;-60
2023/06/21 12:11:59;;;;;;;17.57;15.97;;;23.40;40.10;;;;;;5007566;28;20453;-59
2023/06/21 12:14:25;;;;;;;15.60;14.40;;;23.50;38.40;;;;;;5008353;28;20539;-59
2023/06/21 12:16:52;;;;;;;15.93;14.77;;;23.50;38.20;;;;;;5008180;28;20178;-59
2023/06/21 12:19:21;;;;;;;16.30;15.20;;;23.60;38.70;;;;;;5008345;28;20424;-60
2023/06/21 12:21:47;;;;;;;16.00;14.80;;;23.60;38.60;;;;;;5007599;28;20499;-60
2023/06/21 12:24:13;;;;;;;15.50;14.47;;;23.70;37.20;;;;;;5007627;28;20413;-61
2023/06/21 12:26:53;;;;;;;16.50;15.33;;;23.80;37.70;;;;;;4992919;28;20460;-63
2023/06/21 12:29:19;;;;;;;15.47;14.17;;;23.80;38.20;;;;;;5007991;28;20425;-61
2023/06/21 12:31:45;;;;;;;15.20;14.10;;;23.80;38.80;;;;;;5007269;28;20416;-61